Orbital elements of COSMOS 1809
| Launched | 17 December 1986 |
| Flight ended | – |
| Launch site | Plesetsk Missile and Space Complex, Russia |
| Owner | Commonwealth of Independent States (former USSR) |
| NORAD ID | 17241 |
| Date fetched |
Epoch osculation |
Inc. [°] |
Ecc. | RA asc node [hr] |
Arg Peri. [°] |
Mean anom [°] |
Mean motion [rev/day] |
Abs. mag |
| Date fetched |
Epoch osculation |
Inc. [°] |
Ecc. | RA asc node [hr] |
Arg Peri. [°] |
Mean anom [°] |
Mean motion [rev/day] |
Abs. mag |
| 2026 May 01 17:56 | 2026 Apr 30 14:06:19 | 82.5286 | 0.00143 | 21.2382 | 296.8562 | 117.2704 | 13.84489 | 5.743 |
| 2026 Apr 30 17:56 | 2026 Apr 30 14:06:19 | 82.5286 | 0.00143 | 21.2382 | 296.8562 | 117.2704 | 13.84489 | 5.743 |
| 2026 Apr 29 17:57 | 2026 Apr 24 12:27:00 | 82.5293 | 0.00145 | 21.5606 | 315.1683 | 117.2704 | 13.84489 | 5.743 |
| 2026 Apr 28 17:56 | 2026 Apr 24 12:27:00 | 82.5293 | 0.00145 | 21.5606 | 315.1683 | 117.2704 | 13.84489 | 5.743 |
| 2026 Apr 27 17:58 | 2026 Apr 24 12:27:00 | 82.5293 | 0.00145 | 21.5606 | 315.1683 | 117.2704 | 13.84489 | 5.743 |
| 2026 Apr 26 17:58 | 2026 Apr 24 12:27:00 | 82.5293 | 0.00145 | 21.5606 | 315.1683 | 117.2704 | 13.84489 | 5.743 |
| 2026 Apr 25 17:58 | 2026 Apr 24 12:27:00 | 82.5293 | 0.00145 | 21.5606 | 315.1683 | 117.2704 | 13.84489 | 5.743 |
| 2026 Apr 24 17:59 | 2026 Apr 24 12:27:00 | 82.5293 | 0.00145 | 21.5606 | 315.1683 | 117.2704 | 13.84489 | 5.743 |
| 2026 Apr 23 17:57 | 2026 Apr 19 08:06:11 | 82.5300 | 0.00148 | 21.8358 | 330.4995 | 117.2704 | 13.84489 | 5.743 |
| 2026 Apr 22 17:57 | 2026 Apr 19 08:06:11 | 82.5300 | 0.00148 | 21.8358 | 330.4995 | 117.2704 | 13.84489 | 5.743 |
| 2026 Apr 21 17:57 | 2026 Apr 19 08:06:11 | 82.5300 | 0.00148 | 21.8358 | 330.4995 | 117.2704 | 13.84489 | 5.743 |
| 2026 Apr 20 17:57 | 2026 Apr 19 08:06:11 | 82.5300 | 0.00148 | 21.8358 | 330.4995 | 117.2704 | 13.84489 | 5.743 |
| 2026 Apr 19 17:58 | 2026 Apr 19 08:06:11 | 82.5300 | 0.00148 | 21.8358 | 330.4995 | 117.2704 | 13.84489 | 5.743 |
| 2026 Apr 18 17:56 | 2026 Apr 13 01:08:42 | 82.5313 | 0.00152 | 22.1698 | 348.6155 | 117.2704 | 13.84489 | 5.743 |
| 2026 Apr 16 17:57 | 2026 Apr 13 01:08:42 | 82.5313 | 0.00152 | 22.1698 | 348.6155 | 117.2704 | 13.84489 | 5.743 |
| 2026 Apr 14 17:57 | 2026 Apr 13 01:08:42 | 82.5313 | 0.00152 | 22.1698 | 348.6155 | 117.2704 | 13.84489 | 5.743 |
| 2026 Apr 13 17:57 | 2026 Apr 13 01:08:42 | 82.5313 | 0.00152 | 22.1698 | 348.6155 | 117.2704 | 13.84489 | 5.743 |
| 2026 Apr 12 17:57 | 2026 Apr 08 14:39:16 | 82.5319 | 0.00155 | 22.4054 | 1.1314 | 117.2704 | 13.84489 | 5.743 |
| 2026 Apr 11 17:57 | 2026 Apr 08 14:39:16 | 82.5319 | 0.00155 | 22.4054 | 1.1314 | 117.2704 | 13.84489 | 5.743 |
| 2026 Apr 10 17:58 | 2026 Apr 08 14:39:16 | 82.5319 | 0.00155 | 22.4054 | 1.1314 | 117.2704 | 13.84489 | 5.743 |
| 2026 Apr 09 18:01 | 2026 Apr 08 14:39:16 | 82.5319 | 0.00155 | 22.4054 | 1.1314 | 117.2704 | 13.84489 | 5.743 |
| 2026 Apr 08 17:57 | 2026 Apr 08 14:39:16 | 82.5319 | 0.00155 | 22.4054 | 1.1314 | 117.2704 | 13.84489 | 5.743 |
| 2026 Apr 07 17:57 | 2026 Apr 02 04:44:25 | 82.5333 | 0.00159 | 22.7459 | 18.7331 | 117.2704 | 13.84489 | 5.743 |
| 2026 Apr 06 17:57 | 2026 Apr 02 04:44:25 | 82.5333 | 0.00159 | 22.7459 | 18.7331 | 117.2704 | 13.84489 | 5.743 |
| 2026 Apr 05 17:56 | 2026 Apr 02 04:44:25 | 82.5333 | 0.00159 | 22.7459 | 18.7331 | 117.2704 | 13.84489 | 5.743 |
| 2026 Apr 04 17:57 | 2026 Apr 02 04:44:25 | 82.5333 | 0.00159 | 22.7459 | 18.7331 | 117.2704 | 13.84489 | 5.743 |